createdAt,value
2023-03-27T00:03:59.498Z,11.51
2023-03-27T00:08:57.157Z,11.66
2023-03-27T00:14:00.474Z,11.48
2023-03-27T00:19:01.549Z,11.74
2023-03-27T00:24:00.593Z,11.68
2023-03-27T00:28:58.940Z,11.62
2023-03-27T00:33:56.550Z,11.75
2023-03-27T00:38:55.517Z,11.72
2023-03-27T00:43:58.496Z,11.71
2023-03-27T00:48:56.219Z,11.55
2023-03-27T00:53:57.176Z,11.05
2023-03-27T00:58:58.250Z,10.62
2023-03-27T01:03:58.017Z,10.96
2023-03-27T01:08:58.859Z,10.92
2023-03-27T01:14:02.437Z,10.98
2023-03-27T01:19:23.104Z,10.82
2023-03-27T01:24:27.177Z,10.70
2023-03-27T01:29:45.542Z,10.52
2023-03-27T01:35:02.082Z,10.63
2023-03-27T01:40:18.222Z,10.80
2023-03-27T01:45:16.612Z,10.18
2023-03-27T01:50:17.340Z,9.62
2023-03-27T01:55:19.653Z,9.05
2023-03-27T02:00:22.407Z,9.10
2023-03-27T02:05:43.551Z,9.24
2023-03-27T02:10:42.610Z,9.85
2023-03-27T02:15:44.430Z,8.70
2023-03-27T02:20:44.504Z,9.24
2023-03-27T02:25:46.349Z,9.04
2023-03-27T02:31:06.322Z,9.07
2023-03-27T02:36:42.606Z,9.09
2023-03-27T02:41:59.679Z,9.34
2023-03-27T02:47:07.522Z,9.15
2023-03-27T02:52:12.514Z,9.47
2023-03-27T02:57:15.623Z,9.82
2023-03-27T03:02:42.601Z,10.23
2023-03-27T03:07:43.473Z,10.66
2023-03-27T03:12:43.831Z,10.83
2023-03-27T03:17:42.073Z,10.84
2023-03-27T03:22:48.348Z,10.94
2023-03-27T03:27:50.749Z,10.92
2023-03-27T03:32:51.925Z,11.15
2023-03-27T03:37:51.721Z,11.28
2023-03-27T03:42:52.143Z,11.30
2023-03-27T03:53:39.390Z,11.52
2023-03-27T03:58:58.450Z,11.75
2023-03-27T04:03:58.571Z,12.02
2023-03-27T04:09:03.237Z,12.17
2023-03-27T04:14:30.050Z,12.20
2023-03-27T04:19:31.917Z,12.18
2023-03-27T04:24:46.086Z,12.21
2023-03-27T04:29:47.709Z,12.28
2023-03-27T04:35:07.138Z,12.53
2023-03-27T04:40:18.443Z,11.92
2023-03-27T04:45:26.165Z,11.61
2023-03-27T04:50:27.768Z,11.56
2023-03-27T04:55:26.948Z,11.83
2023-03-27T05:00:24.656Z,11.69
2023-03-27T05:05:50.195Z,11.43
2023-03-27T05:10:47.664Z,11.12
2023-03-27T05:15:46.449Z,11.35
2023-03-27T05:20:49.963Z,11.48
2023-03-27T05:26:00.550Z,11.62
2023-03-27T05:31:19.448Z,11.69
2023-03-27T05:36:40.529Z,11.92
2023-03-27T05:41:39.050Z,12.26
2023-03-27T05:46:41.259Z,12.39
2023-03-27T05:51:47.347Z,12.85
2023-03-27T05:56:51.531Z,13.44
2023-03-27T06:01:50.577Z,13.97
2023-03-27T06:06:55.449Z,14.44
2023-03-27T06:11:53.411Z,14.98
2023-03-27T06:16:53.385Z,15.24
2023-03-27T06:22:09.694Z,15.49
2023-03-27T06:27:10.832Z,15.56
2023-03-27T06:32:12.048Z,15.69
2023-03-27T06:37:17.194Z,16.00
2023-03-27T06:42:18.083Z,16.24
2023-03-27T06:47:24.193Z,16.56
2023-03-27T06:52:42.301Z,16.86
2023-03-27T06:58:14.090Z,17.29
2023-03-27T07:03:15.301Z,17.65
2023-03-27T07:08:27.933Z,17.96
2023-03-27T07:13:30.776Z,18.26
2023-03-27T07:18:32.198Z,18.37
2023-03-27T07:23:30.650Z,18.74
2023-03-27T07:28:38.773Z,18.88
2023-03-27T07:33:43.568Z,18.91
2023-03-27T07:38:42.364Z,19.11
2023-03-27T07:43:54.025Z,19.24
2023-03-27T07:48:53.642Z,19.36
2023-03-27T07:53:58.864Z,19.40
2023-03-27T07:59:02.522Z,19.56
2023-03-27T08:04:01.861Z,19.69
2023-03-27T08:09:02.654Z,20.01
2023-03-27T08:14:01.524Z,20.37
2023-03-27T08:19:01.982Z,20.68
2023-03-27T08:24:04.817Z,20.82
2023-03-27T08:29:07.425Z,21.00
2023-03-27T08:34:09.577Z,20.40
2023-03-27T08:39:14.998Z,20.39
2023-03-27T08:44:27.978Z,20.35
2023-03-27T08:49:27.250Z,20.20
2023-03-27T08:54:41.018Z,20.30
2023-03-27T08:59:41.755Z,20.36
2023-03-27T09:05:00.795Z,20.67
2023-03-27T09:10:04.120Z,20.70
2023-03-27T09:15:30.081Z,20.98
2023-03-27T09:20:32.507Z,21.09
2023-03-27T09:25:37.967Z,21.40
2023-03-27T09:30:51.162Z,21.28
2023-03-27T09:36:00.279Z,21.53
2023-03-27T09:41:02.523Z,21.72
2023-03-27T09:46:03.836Z,21.75
2023-03-27T09:51:05.279Z,22.00
2023-03-27T09:56:13.401Z,22.21
2023-03-27T10:01:21.305Z,21.87
2023-03-27T10:06:29.764Z,21.69
2023-03-27T10:11:37.419Z,21.77
2023-03-27T10:16:43.735Z,21.65
2023-03-27T10:21:50.323Z,21.83
2023-03-27T10:26:54.691Z,21.83
2023-03-27T10:31:56.885Z,21.96
2023-03-27T10:37:21.105Z,22.01
2023-03-27T10:42:27.924Z,22.26
2023-03-27T10:47:37.244Z,22.30
2023-03-27T10:52:50.149Z,22.04
2023-03-27T10:57:57.805Z,22.18
2023-03-27T11:03:05.084Z,22.15
2023-03-27T11:08:04.380Z,22.41
2023-03-27T11:13:20.829Z,22.48
2023-03-27T11:18:26.149Z,22.17
2023-03-27T11:23:38.705Z,22.41
2023-03-27T11:29:41.241Z,22.38
2023-03-27T11:34:42.640Z,22.23
2023-03-27T11:40:10.698Z,22.64
2023-03-27T11:45:12.715Z,22.67
2023-03-27T11:50:31.972Z,22.14
2023-03-27T11:55:54.294Z,22.01
2023-03-27T12:01:14.141Z,21.84
2023-03-27T12:06:32.706Z,21.62
2023-03-27T12:11:33.863Z,21.54
2023-03-27T12:16:54.470Z,21.16
2023-03-27T12:22:23.547Z,21.02
2023-03-27T12:27:36.280Z,20.69
2023-03-27T12:33:21.390Z,20.37
2023-03-27T12:38:30.590Z,20.22
2023-03-27T12:43:33.076Z,20.19
2023-03-27T12:49:02.526Z,19.79
2023-03-27T12:54:12.884Z,18.12
2023-03-27T12:59:33.875Z,17.08
2023-03-27T13:04:39.596Z,16.90
2023-03-27T13:09:48.161Z,16.92
2023-03-27T13:15:10.350Z,17.03
2023-03-27T13:20:13.297Z,17.22
2023-03-27T13:25:27.868Z,17.04
2023-03-27T13:30:40.119Z,16.98
2023-03-27T13:36:00.505Z,16.91
2023-03-27T13:41:19.734Z,16.60
2023-03-27T13:46:19.243Z,16.34
2023-03-27T13:51:48.505Z,16.55
2023-03-27T13:56:58.201Z,16.13
2023-03-27T14:02:07.036Z,15.91
2023-03-27T14:07:20.868Z,15.93
2023-03-27T14:12:45.072Z,15.97
2023-03-27T14:18:19.595Z,15.91
2023-03-27T14:23:28.311Z,15.56
2023-03-27T14:28:49.967Z,15.33
2023-03-27T14:34:03.678Z,15.28
2023-03-27T14:39:19.634Z,15.48
2023-03-27T14:44:22.841Z,15.35
2023-03-27T14:49:37.527Z,15.48
2023-03-27T14:54:55.085Z,15.47
2023-03-27T15:00:02.180Z,15.82
2023-03-27T15:05:13.135Z,15.66
2023-03-27T15:10:22.633Z,15.65
2023-03-27T15:15:43.282Z,15.70
2023-03-27T15:20:44.061Z,15.37
2023-03-27T15:25:47.260Z,15.39
2023-03-27T15:31:19.382Z,15.66
2023-03-27T15:36:36.856Z,15.36
2023-03-27T15:41:41.866Z,15.49
2023-03-27T15:46:48.218Z,15.50
2023-03-27T15:51:46.243Z,15.75
2023-03-27T15:56:47.563Z,15.64
2023-03-27T16:01:55.231Z,15.50
2023-03-27T16:07:24.578Z,15.45
2023-03-27T16:12:49.678Z,15.19
2023-03-27T16:17:49.391Z,15.12
2023-03-27T16:22:54.115Z,15.10
2023-03-27T16:27:56.140Z,15.03
2023-03-27T16:33:20.245Z,14.78
2023-03-27T16:38:25.607Z,14.73
2023-03-27T16:43:29.034Z,14.33
2023-03-27T16:48:30.192Z,14.08
2023-03-27T16:53:29.512Z,14.01
2023-03-27T16:58:31.024Z,14.03
2023-03-27T17:03:35.379Z,13.96
2023-03-27T17:08:33.758Z,14.02
2023-03-27T17:13:35.158Z,13.86
2023-03-27T17:18:36.084Z,13.82
2023-03-27T17:23:35.390Z,14.16
2023-03-27T17:28:33.681Z,13.67
2023-03-27T17:33:36.892Z,14.22
2023-03-27T17:38:35.850Z,14.05
2023-03-27T17:43:34.200Z,14.15
2023-03-27T17:48:36.979Z,14.22
2023-03-27T17:53:37.858Z,14.21
2023-03-27T17:58:38.222Z,14.12
2023-03-27T18:03:38.780Z,13.82
2023-03-27T18:08:37.388Z,13.60
2023-03-27T18:13:35.494Z,13.43
2023-03-27T18:18:33.626Z,13.32
2023-03-27T18:23:36.972Z,13.17
2023-03-27T18:28:47.327Z,13.04
2023-03-27T18:33:46.804Z,13.06
2023-03-27T18:38:49.695Z,12.87
2023-03-27T18:43:47.538Z,12.75
2023-03-27T18:48:46.193Z,12.73
2023-03-27T18:53:44.196Z,12.72
2023-03-27T18:58:42.960Z,12.65
2023-03-27T19:03:41.902Z,12.61
2023-03-27T19:08:42.345Z,12.54
2023-03-27T19:13:42.575Z,12.46
2023-03-27T19:19:00.118Z,12.43
2023-03-27T19:24:19.773Z,12.33
2023-03-27T19:29:23.241Z,12.22
2023-03-27T19:34:39.966Z,12.07
2023-03-27T19:39:44.047Z,11.97
2023-03-27T19:44:42.705Z,11.95
2023-03-27T19:49:44.618Z,11.82
2023-03-27T19:54:45.570Z,11.71
2023-03-27T19:59:46.324Z,11.69
2023-03-27T20:04:44.801Z,11.67
2023-03-27T20:09:47.461Z,11.76
2023-03-27T20:15:02.952Z,11.65
2023-03-27T20:20:11.095Z,11.61
2023-03-27T20:25:14.656Z,11.51
2023-03-27T20:30:14.875Z,11.45
2023-03-27T20:35:24.307Z,11.25
2023-03-27T20:40:37.034Z,11.16
2023-03-27T20:45:50.665Z,11.09
2023-03-27T20:50:52.567Z,11.05
2023-03-27T20:55:59.310Z,10.99
2023-03-27T21:01:06.868Z,10.92
2023-03-27T21:06:07.545Z,10.98
2023-03-27T21:11:06.481Z,10.80
2023-03-27T21:16:06.408Z,10.78
2023-03-27T21:21:10.101Z,10.65
2023-03-27T21:26:09.295Z,10.61
2023-03-27T21:31:09.046Z,10.58
2023-03-27T21:36:10.707Z,10.51
2023-03-27T21:41:14.410Z,10.48
2023-03-27T21:46:14.448Z,10.53
2023-03-27T21:51:22.746Z,10.42
2023-03-27T21:56:25.199Z,10.32
2023-03-27T22:01:24.282Z,10.25
2023-03-27T22:06:25.580Z,10.15
2023-03-27T22:11:28.885Z,10.08
2023-03-27T22:16:41.831Z,10.05
2023-03-27T22:21:42.753Z,10.02
2023-03-27T22:26:58.860Z,9.92
2023-03-27T22:31:58.541Z,9.82
2023-03-27T22:36:57.497Z,9.79
2023-03-27T22:41:56.845Z,9.69
2023-03-27T22:46:55.769Z,9.61
2023-03-27T22:51:53.121Z,9.51
2023-03-27T22:56:51.882Z,9.48
2023-03-27T23:01:51.020Z,9.45
2023-03-27T23:06:48.773Z,9.43
2023-03-27T23:11:47.264Z,9.35
2023-03-27T23:16:47.764Z,9.29
2023-03-27T23:21:44.941Z,9.22
2023-03-27T23:26:43.953Z,9.22
2023-03-27T23:31:42.264Z,9.11
2023-03-27T23:36:40.464Z,9.08
2023-03-27T23:41:41.281Z,9.00
2023-03-27T23:46:40.355Z,8.82
2023-03-27T23:51:38.045Z,8.74
2023-03-27T23:56:36.519Z,8.50
